Detalii statie AGROKAISER STANESTI [0000198D]

Toti senzorii

Date Temperatura solului [C]Precipitatii [mm]Voltaj baterie [mV]Leaf Wetness [Min]HC Air temperature [C]HC Relative humidity [%]Punctul de roua [C]
medieminmaxsumaultimatimpmedieminmaxmediemediemin
2018-06-20 10:00:00 0 7254 29.47 28.24 30.66 69.03 23 22.4
2018-06-20 11:00:00 0 7264 30.76 29.67 31.51 66.13 23.5 22.6
2018-06-20 12:00:00 0 7264 30.69 29.15 31.8 63.49 22.7 22.1
2018-06-20 13:00:00 0 7236 31.17 30.35 31.76 59.36 22.1 21.5
2018-06-20 14:00:00 0 7118 31.46 30.55 31.93 56.96 21.7 21
2018-06-20 15:00:00 0 7236 31.87 31.11 32.48 54.75 21.4 20.3
2018-06-20 16:00:00 0 7236 31.91 30.86 32.39 53.72 21.1 20.3
2018-06-20 17:00:00 0 7030 31.95 31.6 32.37 51.84 20.6 20.1
2018-06-20 18:00:00 0 6972 31.64 31.43 31.97 51.35 20.2 19.7
2018-06-20 19:00:00 0 6904 31.14 30.59 31.45 53.84 20.4 19.5
2018-06-20 20:00:00 0 6806 29.55 28.76 30.57 58.73 20.4 19.3
2018-06-20 21:00:00 0 6776 27.33 26.04 28.52 65.02 20 19.2
2018-06-20 22:00:00 0 6766 24.59 22.92 26.43 79.31 20.4 19
2018-06-20 23:00:00 0 6748 21.75 20.77 23 99.73 21.6 20.7
2018-06-21 00:00:00 0 6738 20.73 20.22 21.26 100 20.6 20.2
2018-06-21 01:00:00 0 6738 19.48 18.87 20.3 100 19.4 18.8
2018-06-21 02:00:00 0 6738 19.6 18.81 20.56 99.58 19.4 18.8
2018-06-21 03:00:00 0 6728 19.56 18.86 20.31 100 19.5 18.8
2018-06-21 04:00:00 0 6738 19.17 18.69 19.68 100 19.1 18.6
2018-06-21 05:00:00 0 6728 18.87 18.36 19.29 100 18.8 18.3
2018-06-21 06:00:00 0 6748 19.73 19.12 20.82 100 19.6 19.1
2018-06-21 07:00:00 0 7020 21.85 20.98 23.82 99.89 21.7 20.9
2018-06-21 08:00:00 0 7216 24.27 23.9 24.89 100 24.2 23.9
2018-06-21 09:00:00 0 7264 25.1 24.76 26.46 97.13 24.5 24.1
2018-06-21 10:00:00 0 7264 27.56 26.42 28.65 85.96 24.8 24.5
2018-06-21 11:00:00 0 7254 28.63 27.86 29.2 77.83 24.2 23.7
2018-06-21 12:00:00 0 7166 29.38 28.7 29.73 75.18 24.3 24
2018-06-21 13:00:00 0 7246 29.21 28.85 29.72 73 23.7 23.2
2018-06-21 14:00:00 0 7128 29.45 28.8 29.88 70.73 23.4 22.9
2018-06-21 15:00:00 0 7020 29.96 29.5 30.7 67.63 23.1 22.7
2018-06-21 16:00:00 0 6864 27.97 26.91 29.07 75.57 23 22.8
2018-06-21 17:00:00 0 6914 26.42 26.05 26.9 86.62 23.8 23.1
2018-06-21 18:00:00 0 6922 25.78 25.54 26.4 95.82 24.9 24.7
2018-06-21 19:00:00 0 6914 26.59 26.23 26.74 88.35 24.3 23.7
2018-06-21 20:00:00 0 6796 25.2 23.96 26.32 91.54 23.5 23.3
2018-06-21 21:00:00 0 6776 24.09 23.64 24.4 94 22.9 22.6
2018-06-21 22:00:00 0 6766 22.9 22.05 23.5 99.57 22.7 22
2018-06-21 23:00:00 0 6756 22.35 21.91 22.78 100 22.3 21.9
2018-06-22 00:00:00 0 6738 20.93 20.45 21.81 100 20.8 20.4
2018-06-22 01:00:00 0 6738 20.87 20.63 21.27 100 20.8 20.6
2018-06-22 02:00:00 0 6728 20.21 19.93 20.78 100 20.1 19.9
2018-06-22 03:00:00 0 6738 19.46 18.71 19.96 100 19.4 18.7
2018-06-22 04:00:00 0 6728 19.25 18.76 19.41 100 19.2 18.7
2018-06-22 05:00:00 0 6718 18.57 18.37 18.97 100 18.5 18.3
2018-06-22 06:00:00 0 6806 18.71 18.46 19.26 100 18.6 18.4
2018-06-22 07:00:00 0 7166 20.19 19.39 20.97 100 20.1 19.3
2018-06-22 08:00:00 0 7274 22.51 21.34 23.75 100 22.4 21.3
2018-06-22 09:00:00 0 7264 24.72 23.67 25.4 99.21 24.5 23.6